ASN logo
Last updated: 1 December 2021
Statuts:
Date:mardi 3 décembre 2019
Heure:08:34
Type/Sous-type:Silhouette image of generic H25B model; specific model in this crash may look slightly different
British Aerospace BAe-125-800A
Compagnie:Business Jet Managers Inc
Immatriculation: N469RJ
Numéro de série: 258067
Année de Fabrication: 1986
Equipage:victimes: 0 / à bord: 2
Passagers:victimes: 0 / à bord: 0
Total:victimes: 0 / à bord: 2
Dégats de l'appareil: Substantiels
Lieu de l'accident:Detroit-Coleman A. Young International Airport, MI (DET) (   Etats-Unis d'Amérique)
Phase de vol: A l'atterrissage (LDG)
Nature:Inconnu
Aéroport de départ:Detroit-Willow Run Airport, MI (YIP/KYIP), Etats-Unis d'Amérique
Aéroport de destination:Detroit-Coleman A. Young International Airport, MI (DET/KDET), Etats-Unis d'Amérique
Détails:
The aircraft experienced a loss of directional control and subsequent runway excursion upon landing on runway 33 at Coleman A Young Municipal Airport (KDET), Detroit, Michigan, USA. The airplane sustained substantial damage to the outer right wing and nosegear collapse. The two pilots onboard were not injured.

Accident investigation:
Investigating agency: NTSB
Status: Investigation ongoing
Accident number: CEN20LA028

Sources:
» FAA
» WXYZ

METAR Weather report:
12:53 UTC / 07:53 local time:
KDET 031253Z 26008KT 10SM OVC011 M01/M03 A2987 RMK AO2 SLP121 T10111028

13:44 UTC / 08:44 local time:
KDET 031344Z 28008KT 10SM OVC010 M02/M03 A2986 RMK AO2 T10171028


Photos

Add your photo of this accident or aircraft

Plan
This map shows the airport of departure and the intended destination of the flight. The line is connecting ADS-B datapoints from FlightAware.
La distance entre Detroit-Willow Run Airport, MI et Detroit-Coleman A. Young International Airport, MI est de 47 km (29 miles).
Accident location: Approximate; accuracy within a few kilometers.

Les informations ci-dessus ne représentent pas l'opinion de la 'Flight Safety Foundation' ou de 'Aviation Safety Network' sur les causes de l'accident. Ces informations prélimimaires sont basées sur les faits tel qu'ils sont connus à ce jour.
languages: languages

Share